createdAt,value
2019-06-20T00:02:18.796Z,9.23
2019-06-20T00:04:45.683Z,8.50
2019-06-20T00:07:12.471Z,7.50
2019-06-20T00:09:39.438Z,7.63
2019-06-20T00:12:06.374Z,6.77
2019-06-20T00:14:33.169Z,7.03
2019-06-20T00:17:00.219Z,7.47
2019-06-20T00:19:27.154Z,7.53
2019-06-20T00:21:54.059Z,7.20
2019-06-20T00:24:20.922Z,7.23
2019-06-20T00:26:47.702Z,8.03
2019-06-20T00:29:14.591Z,7.07
2019-06-20T00:31:41.499Z,7.03
2019-06-20T00:34:08.414Z,6.37
2019-06-20T00:36:35.368Z,6.47
2019-06-20T00:39:02.442Z,5.23
2019-06-20T00:41:29.265Z,4.93
2019-06-20T00:43:56.132Z,4.73
2019-06-20T00:46:22.925Z,4.30
2019-06-20T00:48:49.718Z,3.90
2019-06-20T00:51:16.757Z,4.10
2019-06-20T00:53:43.561Z,3.93
2019-06-20T00:56:10.550Z,4.17
2019-06-20T00:58:37.610Z,4.40
2019-06-20T01:01:05.016Z,4.30
2019-06-20T01:03:31.815Z,4.37
2019-06-20T01:06:18.293Z,4.50
2019-06-20T01:08:45.284Z,4.40
2019-06-20T01:11:12.176Z,3.57
2019-06-20T01:13:39.090Z,3.90
2019-06-20T01:16:06.010Z,4.00
2019-06-20T01:18:33.033Z,4.13
2019-06-20T01:21:00.113Z,3.50
2019-06-20T01:23:27.021Z,3.33
2019-06-20T01:25:53.922Z,3.10
2019-06-20T01:28:20.754Z,3.37
2019-06-20T01:30:47.911Z,3.80
2019-06-20T01:33:14.918Z,3.80
2019-06-20T01:35:41.826Z,3.67
2019-06-20T01:38:08.763Z,3.50
2019-06-20T01:40:35.559Z,3.50
2019-06-20T01:43:02.634Z,3.90
2019-06-20T01:45:29.580Z,4.07
2019-06-20T01:47:56.427Z,4.00
2019-06-20T01:50:23.423Z,4.27
2019-06-20T01:52:50.265Z,4.30
2019-06-20T01:55:17.267Z,3.80
2019-06-20T01:57:44.171Z,3.87
2019-06-20T02:00:13.379Z,4.20
2019-06-20T02:02:40.404Z,4.67
2019-06-20T02:05:08.347Z,3.90
2019-06-20T02:07:35.372Z,3.80
2019-06-20T02:10:02.924Z,3.63
2019-06-20T02:12:29.782Z,3.57
2019-06-20T02:14:56.856Z,4.07
2019-06-20T02:17:23.853Z,3.90
2019-06-20T02:19:50.662Z,4.30
2019-06-20T02:22:17.686Z,3.53
2019-06-20T02:24:44.594Z,4.00
2019-06-20T02:27:11.638Z,3.53
2019-06-20T02:29:38.646Z,3.87
2019-06-20T02:32:05.553Z,3.80
2019-06-20T02:34:32.489Z,3.87
2019-06-20T02:36:59.391Z,3.37
2019-06-20T02:39:26.285Z,3.70
2019-06-20T02:41:53.223Z,3.87
2019-06-20T02:44:29.947Z,4.30
2019-06-20T02:46:48.742Z,3.80
2019-06-20T02:49:15.673Z,3.97
2019-06-20T02:51:42.888Z,3.30
2019-06-20T02:54:09.695Z,3.57
2019-06-20T02:56:36.655Z,3.70
2019-06-20T02:59:03.677Z,3.73
2019-06-20T03:01:30.663Z,3.33
2019-06-20T03:03:57.609Z,3.70
2019-06-20T03:06:24.625Z,3.70
2019-06-20T03:08:51.458Z,4.03
2019-06-20T03:11:18.353Z,4.13
2019-06-20T03:13:45.301Z,4.53
2019-06-20T03:16:12.111Z,3.73
2019-06-20T03:18:38.925Z,4.13
2019-06-20T03:21:05.767Z,4.10
2019-06-20T03:23:32.586Z,4.80
2019-06-20T03:25:59.497Z,4.10
2019-06-20T03:28:26.442Z,4.53
2019-06-20T03:30:53.339Z,5.43
2019-06-20T03:33:20.310Z,5.50
2019-06-20T03:35:47.335Z,5.10
2019-06-20T03:38:14.247Z,5.13
2019-06-20T03:40:41.180Z,5.50
2019-06-20T03:43:08.068Z,5.00
2019-06-20T03:45:34.986Z,5.07
2019-06-20T03:48:02.115Z,5.33
2019-06-20T03:50:29.011Z,5.00
2019-06-20T03:53:01.889Z,5.30
2019-06-20T03:55:32.172Z,5.13
2019-06-20T03:58:00.150Z,5.23
2019-06-20T04:00:33.047Z,5.77
2019-06-20T04:03:00.166Z,5.93
2019-06-20T04:05:27.183Z,5.70
2019-06-20T04:07:54.015Z,6.10
2019-06-20T04:10:20.902Z,6.63
2019-06-20T04:12:47.702Z,5.60
2019-06-20T04:15:19.019Z,6.30
2019-06-20T04:17:43.547Z,5.83
2019-06-20T04:20:10.850Z,5.80
2019-06-20T04:22:37.773Z,5.07
2019-06-20T04:25:04.907Z,5.93
2019-06-20T04:27:31.698Z,5.30
2019-06-20T04:29:58.617Z,5.50
2019-06-20T04:32:25.429Z,5.70
2019-06-20T04:34:52.341Z,5.13
2019-06-20T04:37:19.290Z,6.37
2019-06-20T04:39:46.179Z,5.67
2019-06-20T04:42:13.024Z,5.50
2019-06-20T04:44:39.822Z,6.30
2019-06-20T04:47:09.566Z,6.20
2019-06-20T04:49:36.473Z,6.07
2019-06-20T04:52:03.495Z,6.43
2019-06-20T04:54:30.334Z,6.13
2019-06-20T04:56:57.159Z,6.10
2019-06-20T04:59:23.974Z,6.17
2019-06-20T05:01:50.822Z,6.90
2019-06-20T05:04:17.742Z,6.27
2019-06-20T05:06:48.017Z,5.80
2019-06-20T05:09:14.905Z,6.40
2019-06-20T05:11:41.831Z,6.47
2019-06-20T05:14:08.818Z,6.10
2019-06-20T05:16:35.680Z,6.20
2019-06-20T05:19:02.581Z,6.23
2019-06-20T05:21:29.525Z,6.07
2019-06-20T05:23:56.319Z,6.27
2019-06-20T05:26:23.143Z,6.50
2019-06-20T05:28:50.094Z,6.13
2019-06-20T05:31:16.902Z,6.57
2019-06-20T05:33:43.926Z,6.47
2019-06-20T05:36:10.892Z,6.93
2019-06-20T05:38:37.786Z,6.70
2019-06-20T05:41:04.714Z,6.40
2019-06-20T05:43:31.572Z,6.20
2019-06-20T05:46:08.755Z,6.03
2019-06-20T05:48:27.497Z,6.13
2019-06-20T05:50:54.622Z,5.83
2019-06-20T05:53:21.644Z,6.00
2019-06-20T05:55:48.546Z,6.10
2019-06-20T05:58:15.556Z,5.70
2019-06-20T06:00:42.496Z,5.47
2019-06-20T06:03:09.316Z,6.20
2019-06-20T06:05:37.194Z,6.37
2019-06-20T06:08:04.334Z,6.23
2019-06-20T06:10:31.164Z,6.33
2019-06-20T06:12:58.247Z,6.77
2019-06-20T06:15:25.195Z,6.30
2019-06-20T06:17:52.112Z,6.93
2019-06-20T06:20:20.016Z,6.77
2019-06-20T06:22:47.191Z,6.93
2019-06-20T06:25:14.491Z,7.37
2019-06-20T06:27:41.577Z,7.23
2019-06-20T06:30:09.351Z,7.17
2019-06-20T06:32:39.972Z,8.00
2019-06-20T06:35:05.291Z,7.40
2019-06-20T06:37:32.405Z,7.43
2019-06-20T06:39:59.214Z,7.30
2019-06-20T06:42:26.051Z,7.70
2019-06-20T06:44:52.850Z,7.07
2019-06-20T06:47:19.665Z,6.67
2019-06-20T06:49:46.638Z,6.60
2019-06-20T06:52:13.463Z,7.00
2019-06-20T06:54:40.273Z,6.40
2019-06-20T06:57:07.080Z,6.53
2019-06-20T06:59:33.984Z,6.47
2019-06-20T07:02:00.892Z,5.97
2019-06-20T07:04:28.000Z,6.37
2019-06-20T07:06:55.092Z,5.73
2019-06-20T07:09:22.102Z,5.93
2019-06-20T07:11:49.030Z,6.67
2019-06-20T07:14:16.017Z,6.03
2019-06-20T07:16:56.536Z,5.90
2019-06-20T07:19:11.911Z,6.20
2019-06-20T07:21:38.981Z,6.33
2019-06-20T07:24:05.930Z,5.40
2019-06-20T07:26:32.993Z,5.67
2019-06-20T07:29:00.049Z,5.50
2019-06-20T07:31:27.099Z,4.37
2019-06-20T07:33:54.028Z,3.90
2019-06-20T07:36:21.074Z,3.90
2019-06-20T07:38:47.910Z,3.73
2019-06-20T07:41:14.810Z,3.63
2019-06-20T07:43:41.674Z,3.73
2019-06-20T07:46:08.716Z,4.10
2019-06-20T07:48:35.720Z,4.30
2019-06-20T07:51:02.743Z,4.20
2019-06-20T07:53:29.690Z,4.07
2019-06-20T07:55:56.655Z,3.50
2019-06-20T07:58:23.586Z,3.80
2019-06-20T08:00:50.546Z,3.70
2019-06-20T08:03:17.498Z,3.30
2019-06-20T08:05:44.396Z,3.20
2019-06-20T08:08:11.372Z,3.53
2019-06-20T08:10:38.280Z,3.93
2019-06-20T08:13:05.293Z,4.30
2019-06-20T08:15:32.309Z,4.90
2019-06-20T08:17:59.222Z,4.30
2019-06-20T08:20:26.336Z,5.17
2019-06-20T08:22:53.305Z,5.07
2019-06-20T08:25:20.682Z,4.90
2019-06-20T08:27:51.155Z,5.10
2019-06-20T08:30:26.071Z,5.20
2019-06-20T08:32:53.582Z,4.87
2019-06-20T08:35:22.542Z,4.95
2019-06-20T08:37:49.895Z,4.60
2019-06-20T08:40:17.127Z,4.63
2019-06-20T08:42:44.235Z,4.20
2019-06-20T08:45:11.446Z,4.47
2019-06-20T08:47:38.426Z,4.00
2019-06-20T08:50:06.162Z,4.20
2019-06-20T08:52:33.166Z,3.87
2019-06-20T08:55:01.093Z,4.10
2019-06-20T08:57:28.138Z,4.50
2019-06-20T08:59:56.003Z,4.37
2019-06-20T09:02:24.030Z,4.72
2019-06-20T09:04:51.068Z,4.60
2019-06-20T09:07:17.972Z,6.87
2019-06-20T09:09:44.929Z,5.37
2019-06-20T09:12:11.922Z,5.85
2019-06-20T09:14:38.710Z,5.12
2019-06-20T09:17:05.669Z,5.70
2019-06-20T09:19:32.473Z,5.92
2019-06-20T09:22:00.482Z,6.12
2019-06-20T09:24:27.773Z,5.53
2019-06-20T09:26:55.442Z,4.92
2019-06-20T09:29:22.407Z,5.05
2019-06-20T09:31:49.221Z,3.85
2019-06-20T09:34:17.050Z,4.35
2019-06-20T09:36:43.846Z,4.50
2019-06-20T09:39:10.743Z,4.75
2019-06-20T09:41:37.588Z,5.12
2019-06-20T09:44:04.581Z,4.47
2019-06-20T09:46:31.470Z,3.83
2019-06-20T09:48:58.771Z,3.77
2019-06-20T09:51:25.655Z,3.27
2019-06-20T09:53:53.855Z,3.42
2019-06-20T09:56:21.167Z,3.80
2019-06-20T09:58:49.300Z,3.40
2019-06-20T10:01:16.491Z,4.03
2019-06-20T10:03:43.386Z,3.60
2019-06-20T10:06:13.961Z,4.10
2019-06-20T10:08:39.425Z,3.90
2019-06-20T10:11:06.526Z,3.58
2019-06-20T10:13:33.441Z,3.80
2019-06-20T10:16:00.410Z,3.50
2019-06-20T10:18:27.227Z,3.50
2019-06-20T10:20:54.218Z,3.42
2019-06-20T10:23:21.090Z,3.45
2019-06-20T10:25:49.221Z,3.50
2019-06-20T10:28:17.710Z,4.17
2019-06-20T10:30:44.831Z,4.17
2019-06-20T10:33:11.850Z,4.28
2019-06-20T10:35:38.739Z,4.20
2019-06-20T10:38:05.742Z,4.40
2019-06-20T10:40:32.768Z,3.95
2019-06-20T10:42:59.802Z,4.62
2019-06-20T10:45:27.421Z,4.92
2019-06-20T10:47:54.475Z,5.05
2019-06-20T10:50:22.395Z,5.28
2019-06-20T10:52:50.021Z,4.90
2019-06-20T10:55:17.745Z,5.30
2019-06-20T10:57:44.708Z,5.83
2019-06-20T11:00:29.322Z,5.30
2019-06-20T11:02:43.411Z,4.97
2019-06-20T11:05:11.157Z,5.20
2019-06-20T11:07:38.943Z,5.05
2019-06-20T11:10:08.799Z,4.08
2019-06-20T11:12:45.669Z,4.00
2019-06-20T11:15:05.437Z,3.50
2019-06-20T11:17:32.447Z,2.87
2019-06-20T11:19:59.246Z,3.10
2019-06-20T11:22:26.118Z,2.98
2019-06-20T11:24:53.138Z,2.70
2019-06-20T11:27:20.023Z,3.08
2019-06-20T11:29:46.854Z,3.90
2019-06-20T11:32:13.761Z,2.95
2019-06-20T11:34:40.567Z,3.77
2019-06-20T11:37:07.598Z,2.55
2019-06-20T11:39:35.635Z,2.25
2019-06-20T11:42:02.921Z,2.40
2019-06-20T11:44:29.877Z,3.40
2019-06-20T11:46:56.791Z,3.05
2019-06-20T11:49:23.688Z,2.62
2019-06-20T11:51:50.522Z,3.08
2019-06-20T11:54:17.669Z,2.98
2019-06-20T11:56:44.666Z,2.72
2019-06-20T11:59:11.554Z,3.05
2019-06-20T12:01:40.068Z,2.98
2019-06-20T12:04:09.442Z,2.65
2019-06-20T12:06:36.078Z,3.65
2019-06-20T12:09:05.091Z,2.67
2019-06-20T12:11:31.933Z,3.37
2019-06-20T12:13:58.978Z,4.17
2019-06-20T12:16:25.783Z,3.87
2019-06-20T12:18:52.685Z,3.80
2019-06-20T12:21:19.707Z,4.30
2019-06-20T12:23:46.890Z,5.22
2019-06-20T12:26:13.898Z,4.95
2019-06-20T12:28:40.779Z,4.20
2019-06-20T12:31:19.088Z,4.20
2019-06-20T12:33:38.237Z,4.25
2019-06-20T12:36:05.860Z,4.50
2019-06-20T12:38:32.653Z,4.53
2019-06-20T12:40:59.560Z,5.30
2019-06-20T12:43:26.458Z,5.78
2019-06-20T12:45:53.349Z,5.08
2019-06-20T12:48:20.262Z,5.33
2019-06-20T12:50:47.639Z,5.62
2019-06-20T12:53:14.714Z,4.03
2019-06-20T12:55:42.435Z,4.92
2019-06-20T12:58:09.554Z,4.30
2019-06-20T13:00:37.643Z,4.60
2019-06-20T13:03:06.030Z,4.67
2019-06-20T13:05:32.962Z,4.67
2019-06-20T13:07:59.910Z,4.60
2019-06-20T13:10:26.819Z,4.92
2019-06-20T13:12:53.625Z,5.40
2019-06-20T13:15:20.781Z,5.08
2019-06-20T13:17:49.113Z,5.58
2019-06-20T13:20:17.604Z,4.75
2019-06-20T13:22:44.896Z,5.00
2019-06-20T13:25:12.948Z,4.70
2019-06-20T13:27:40.889Z,4.62
2019-06-20T13:30:08.670Z,4.00
2019-06-20T13:32:35.767Z,4.20
2019-06-20T13:35:02.943Z,3.65
2019-06-20T13:37:29.851Z,3.85
2019-06-20T13:39:56.716Z,3.55
2019-06-20T13:42:23.610Z,3.08
2019-06-20T13:44:50.666Z,3.22
2019-06-20T13:47:17.622Z,2.42
2019-06-20T13:49:45.754Z,2.80
2019-06-20T13:52:12.675Z,2.52
2019-06-20T13:54:39.682Z,3.08
2019-06-20T13:57:07.994Z,3.35
2019-06-20T13:59:34.782Z,2.98
2019-06-20T14:02:06.617Z,2.92
2019-06-20T14:04:30.649Z,2.90
2019-06-20T14:06:57.557Z,3.08
2019-06-20T14:09:24.416Z,2.80
2019-06-20T14:11:51.538Z,2.80
2019-06-20T14:14:18.487Z,2.62
2019-06-20T14:16:45.489Z,2.47
2019-06-20T14:19:12.511Z,3.05
2019-06-20T14:21:39.505Z,3.45
2019-06-20T14:24:06.601Z,3.58
2019-06-20T14:26:33.514Z,2.87
2019-06-20T14:29:00.514Z,3.30
2019-06-20T14:31:27.375Z,3.25
2019-06-20T14:33:55.580Z,3.37
2019-06-20T14:36:22.519Z,2.62
2019-06-20T14:38:49.533Z,3.47
2019-06-20T14:41:16.527Z,3.30
2019-06-20T14:43:44.702Z,3.02
2019-06-20T14:46:12.047Z,3.02
2019-06-20T14:48:38.895Z,3.33
2019-06-20T14:51:06.110Z,3.72
2019-06-20T14:53:32.921Z,3.00
2019-06-20T14:55:59.919Z,3.15
2019-06-20T14:58:26.845Z,3.30
2019-06-20T15:00:54.275Z,3.52
2019-06-20T15:03:24.228Z,3.42
2019-06-20T15:05:52.600Z,3.72
2019-06-20T15:08:23.676Z,3.47
2019-06-20T15:10:51.788Z,3.40
2019-06-20T15:13:18.900Z,3.70
2019-06-20T15:15:46.595Z,4.10
2019-06-20T15:18:14.692Z,3.58
2019-06-20T15:20:41.604Z,3.40
2019-06-20T15:23:08.401Z,3.83
2019-06-20T15:25:35.429Z,4.40
2019-06-20T15:28:02.335Z,3.87
2019-06-20T15:30:29.359Z,4.35
2019-06-20T15:33:07.585Z,4.03
2019-06-20T15:35:25.106Z,4.05
2019-06-20T15:37:53.646Z,4.30
2019-06-20T15:40:20.981Z,4.78
2019-06-20T15:42:49.583Z,5.10
2019-06-20T15:45:17.023Z,4.93
2019-06-20T15:47:44.363Z,5.43
2019-06-20T15:50:11.858Z,4.58
2019-06-20T15:52:40.314Z,5.47
2019-06-20T15:55:08.894Z,5.93
2019-06-20T15:57:35.955Z,5.70
2019-06-20T16:00:10.113Z,5.80
2019-06-20T16:02:37.635Z,6.40
2019-06-20T16:05:08.851Z,5.53
2019-06-20T16:07:36.222Z,6.87
2019-06-20T16:10:04.248Z,5.80
2019-06-20T16:12:31.188Z,6.43
2019-06-20T16:15:00.639Z,6.07
2019-06-20T16:17:28.368Z,5.20
2019-06-20T16:19:55.549Z,5.70
2019-06-20T16:22:23.231Z,5.87
2019-06-20T16:24:50.834Z,5.60
2019-06-20T16:27:17.759Z,5.77
2019-06-20T16:29:46.258Z,6.03
2019-06-20T16:32:22.852Z,6.33
2019-06-20T16:34:50.083Z,6.00
2019-06-20T16:37:16.929Z,6.20
2019-06-20T16:39:46.436Z,6.50
2019-06-20T16:42:19.237Z,7.07
2019-06-20T16:44:46.472Z,6.60
2019-06-20T16:47:13.268Z,6.20
2019-06-20T16:49:40.115Z,6.27
2019-06-20T16:52:10.162Z,6.57
2019-06-20T16:54:37.008Z,6.67
2019-06-20T16:57:04.054Z,6.57
2019-06-20T16:59:33.588Z,6.87
2019-06-20T17:02:04.417Z,6.97
2019-06-20T17:04:31.989Z,6.60
2019-06-20T17:07:02.805Z,6.67
2019-06-20T17:09:36.589Z,6.93
2019-06-20T17:12:05.854Z,5.50
2019-06-20T17:14:35.343Z,5.70
2019-06-20T17:17:07.866Z,5.03
2019-06-20T17:19:35.864Z,5.53
2019-06-20T17:22:03.259Z,5.33
2019-06-20T17:24:30.347Z,4.30
2019-06-20T17:26:57.340Z,3.90
2019-06-20T17:29:24.307Z,4.43
2019-06-20T17:31:51.742Z,4.50
2019-06-20T17:34:18.750Z,4.00
2019-06-20T17:36:45.709Z,4.03
2019-06-20T17:39:15.626Z,4.40
2019-06-20T17:41:54.761Z,4.27
2019-06-20T17:44:14.919Z,4.43
2019-06-20T17:46:48.547Z,4.70
2019-06-20T17:49:15.976Z,5.20
2019-06-20T17:51:44.584Z,4.80
2019-06-20T17:54:11.908Z,5.13
2019-06-20T17:56:39.039Z,5.07
2019-06-20T17:59:13.412Z,5.20
2019-06-20T18:01:40.378Z,5.30
2019-06-20T18:04:13.854Z,5.23
2019-06-20T18:06:54.016Z,5.77
2019-06-20T18:09:21.353Z,5.20
2019-06-20T18:11:50.466Z,5.73
2019-06-20T18:14:17.443Z,5.53
2019-06-20T18:16:44.294Z,5.73
2019-06-20T18:19:12.079Z,5.37
2019-06-20T18:21:39.133Z,5.33
2019-06-20T18:24:08.071Z,5.37
2019-06-20T18:26:34.927Z,5.73
2019-06-20T18:29:01.939Z,5.30
2019-06-20T18:31:31.180Z,5.93
2019-06-20T18:33:58.131Z,5.63
2019-06-20T18:36:25.065Z,6.47
2019-06-20T18:38:51.983Z,6.53
2019-06-20T18:41:18.985Z,6.23
2019-06-20T18:43:45.912Z,6.20
2019-06-20T18:46:12.975Z,6.03
2019-06-20T18:48:39.918Z,6.43
2019-06-20T18:51:06.845Z,6.60
2019-06-20T18:53:33.766Z,6.87
2019-06-20T18:56:00.801Z,6.60
2019-06-20T18:58:27.648Z,7.13
2019-06-20T19:00:54.564Z,6.90
2019-06-20T19:03:21.537Z,6.87
2019-06-20T19:05:48.490Z,6.67
2019-06-20T19:08:15.466Z,6.77
2019-06-20T19:10:42.355Z,6.90
2019-06-20T19:13:09.257Z,6.90
2019-06-20T19:15:36.195Z,6.87
2019-06-20T19:18:03.505Z,6.73
2019-06-20T19:20:30.534Z,6.80
2019-06-20T19:22:57.426Z,6.93
2019-06-20T19:25:26.275Z,6.80
2019-06-20T19:27:53.207Z,7.57
2019-06-20T19:30:26.658Z,7.20
2019-06-20T19:32:53.470Z,6.43
2019-06-20T19:35:20.399Z,7.07
2019-06-20T19:37:47.231Z,6.47
2019-06-20T19:40:15.839Z,6.10
2019-06-20T19:42:42.818Z,6.20
2019-06-20T19:45:11.774Z,7.17
2019-06-20T19:47:39.170Z,6.60
2019-06-20T19:50:06.904Z,7.03
2019-06-20T19:52:34.248Z,7.00
2019-06-20T19:55:01.543Z,6.03
2019-06-20T19:57:28.449Z,6.43
2019-06-20T19:59:55.491Z,6.73
2019-06-20T20:02:22.603Z,6.80
2019-06-20T20:04:49.688Z,6.77
2019-06-20T20:07:16.694Z,7.13
2019-06-20T20:09:43.711Z,6.30
2019-06-20T20:12:10.502Z,6.17
2019-06-20T20:14:37.346Z,7.10
2019-06-20T20:17:04.240Z,7.00
2019-06-20T20:19:31.053Z,6.53
2019-06-20T20:21:57.995Z,6.77
2019-06-20T20:24:24.815Z,7.20
2019-06-20T20:26:51.594Z,6.17
2019-06-20T20:29:18.471Z,6.57
2019-06-20T20:31:45.439Z,5.83
2019-06-20T20:34:12.247Z,5.70
2019-06-20T20:36:39.527Z,4.80
2019-06-20T20:39:06.665Z,5.60
2019-06-20T20:41:33.682Z,5.70
2019-06-20T20:44:00.501Z,4.73
2019-06-20T20:46:27.323Z,4.80
2019-06-20T20:48:54.297Z,4.63
2019-06-20T20:51:22.170Z,4.73
2019-06-20T20:53:49.004Z,4.50
2019-06-20T20:56:15.798Z,4.73
2019-06-20T20:58:42.595Z,4.77
2019-06-20T21:01:19.674Z,4.50
2019-06-20T21:03:46.604Z,4.07
2019-06-20T21:06:13.655Z,4.10
2019-06-20T21:08:40.707Z,4.27
2019-06-20T21:11:07.615Z,4.33
2019-06-20T21:13:34.523Z,4.27
2019-06-20T21:16:01.364Z,4.10
2019-06-20T21:18:28.173Z,4.33
2019-06-20T21:20:54.976Z,4.27
2019-06-20T21:23:21.866Z,4.17
2019-06-20T21:25:48.880Z,4.60
2019-06-20T21:28:15.681Z,4.90
2019-06-20T21:30:42.801Z,4.17
2019-06-20T21:33:09.590Z,4.30
2019-06-20T21:35:36.498Z,4.20
2019-06-20T21:38:03.546Z,4.03
2019-06-20T21:40:30.334Z,4.30
2019-06-20T21:42:57.131Z,3.83
2019-06-20T21:45:24.178Z,4.33
2019-06-20T21:47:51.057Z,4.10
2019-06-20T21:50:18.382Z,3.97
2019-06-20T21:52:45.234Z,4.13
2019-06-20T21:55:12.411Z,3.93
2019-06-20T21:57:39.222Z,3.87
2019-06-20T22:00:12.469Z,3.90
2019-06-20T22:02:39.456Z,4.23
2019-06-20T22:05:07.150Z,4.53
2019-06-20T22:07:34.006Z,4.00
2019-06-20T22:10:01.023Z,4.50
2019-06-20T22:12:27.915Z,4.37
2019-06-20T22:14:54.756Z,4.57
2019-06-20T22:17:21.653Z,4.43
2019-06-20T22:19:48.447Z,4.97
2019-06-20T22:22:15.330Z,4.07
2019-06-20T22:24:42.318Z,5.07
2019-06-20T22:27:09.206Z,4.30
2019-06-20T22:29:36.206Z,4.07
2019-06-20T22:32:03.239Z,4.37
2019-06-20T22:34:30.250Z,4.10
2019-06-20T22:36:57.050Z,4.37
2019-06-20T22:39:23.846Z,4.17
2019-06-20T22:41:50.875Z,4.30
2019-06-20T22:44:17.760Z,4.67
2019-06-20T22:46:44.751Z,4.60
2019-06-20T22:49:11.542Z,4.33
2019-06-20T22:51:38.349Z,4.67
2019-06-20T22:54:05.395Z,4.57
2019-06-20T22:56:32.388Z,4.97
2019-06-20T22:58:59.186Z,4.07
2019-06-20T23:01:26.262Z,4.80
2019-06-20T23:03:53.055Z,4.60
2019-06-20T23:06:19.849Z,4.60
2019-06-20T23:08:46.651Z,4.90
2019-06-20T23:11:13.438Z,5.23
2019-06-20T23:13:40.272Z,4.27
2019-06-20T23:16:07.271Z,4.47
2019-06-20T23:18:34.179Z,4.47
2019-06-20T23:21:04.978Z,5.00
2019-06-20T23:23:29.821Z,4.20
2019-06-20T23:25:58.730Z,4.60
2019-06-20T23:28:25.651Z,5.03
2019-06-20T23:30:52.452Z,5.87
2019-06-20T23:33:19.367Z,5.30
2019-06-20T23:35:46.339Z,5.10
2019-06-20T23:38:13.170Z,5.00
2019-06-20T23:40:40.013Z,5.40
2019-06-20T23:43:07.075Z,4.70
2019-06-20T23:45:34.054Z,5.50
2019-06-20T23:48:00.857Z,5.97
2019-06-20T23:50:27.726Z,5.30
2019-06-20T23:53:02.547Z,5.37
2019-06-20T23:55:29.357Z,5.00
2019-06-20T23:57:56.197Z,5.70
